This is the latest recevied weather packets stored in our database for station/object CX5ACA-13. If no packets are shown the sender has not sent any weather packets the latest 10 day(s).
| Time | Temp. | Humidity | Pressure | Rain* | Wind** | Luminosity | Snow |
|---|---|---|---|---|---|---|---|
| 1777914877 | 22.78° C | 42% | 1012.3 hPa | 0 mm | - | 382 W/m² | - |
| 1777914574 | 22.78° C | 42% | 1012.4 hPa | 0 mm | - | 480 W/m² | - |
| 1777914270 | 22.22° C | 44% | 1012.5 hPa | 0 mm | - | 415 W/m² | - |
| 1777913967 | 22.22° C | 42% | 1012.5 hPa | 0 mm | - | 320 W/m² | - |
| 1777913664 | 21.67° C | 44% | 1012.8 hPa | 0 mm | - | 307 W/m² | - |
| 1777913361 | 21.67° C | 48% | 1012.8 hPa | 0 mm | - | 363 W/m² | - |
| 1777913057 | 21.67° C | 48% | 1013.1 hPa | 0 mm | - | 316 W/m² | - |
| 1777912753 | 21.11° C | 50% | 1012.9 hPa | 0 mm | - | 419 W/m² | - |
| 1777912449 | 21.11° C | 49% | 1013 hPa | 0 mm | - | 412 W/m² | - |
| 1777912146 | 21.11° C | 50% | 1013 hPa | 0 mm | - | 446 W/m² | - |
| 1777911841 | 21.67° C | 47% | 1013.1 hPa | 0 mm | - | 373 W/m² | - |
| 1777911539 | 21.67° C | 48% | 1013.2 hPa | 0 mm | - | 459 W/m² | - |
| 1777911235 | 21.67° C | 48% | 1013.2 hPa | 0 mm | - | 580 W/m² | - |
| 1777910932 | 21.11° C | 49% | 1013.2 hPa | 0 mm | - | 532 W/m² | - |
| 1777910629 | 21.67° C | 48% | 1013.2 hPa | 0 mm | - | 518 W/m² | - |
| 1777910326 | 20.56° C | 51% | 1013.2 hPa | 0 mm | - | 475 W/m² | - |
| 1777910023 | 21.11° C | 50% | 1013.5 hPa | 0 mm | - | 326 W/m² | - |
| 1777909720 | 20.56° C | 51% | 1013.4 hPa | 0 mm | - | 544 W/m² | - |
| 1777909417 | 21.11° C | 50% | 1013.5 hPa | 0 mm | - | 488 W/m² | - |
| 1777909115 | 21.11° C | 50% | 1013.7 hPa | 0 mm | - | 515 W/m² | - |
| 1777908813 | 20° C | 53% | 1013.5 hPa | 0 mm | - | 597 W/m² | - |
| 1777908509 | 20° C | 54% | 1013.8 hPa | 0 mm | - | 658 W/m² | - |
| 1777908206 | 18.89° C | 57% | 1013.6 hPa | 0 mm | - | 418 W/m² | - |
| 1777907902 | 18.89° C | 57% | 1013.8 hPa | 0 mm | - | 334 W/m² | - |
| 1777907598 | 18.33° C | 57% | 1013.8 hPa | 0 mm | - | 340 W/m² | - |
* Rain latest hour (hover to see other rain measurements)
** Current wind speed in m/s (hover to see current wind gust speed)